首页
METAR-TAF:

METAR-TAF

机场 :

石油平台

K13-a, 荷兰

纬度: 53-13-04N, 经度: 3-13-13E, 海拔: 31米

当前天气观测

该预报发布于38分钟前的22:25 UTC
风速4节,风向北转东北
温度 4°C
湿度 100%
气压 1030 hPa

METAR: EHJR 022225Z AUTO 03004KT //// // ///////// 04/04 Q1030 RE// W06/H6

时间: 00:03 (23:03 UTC)


TAF: 丢失

超过4000个机场的气象观测和天气预报(METAR&TAF报告)。

可查询的气象台以黄色和红色小点在地图上表示。

将鼠标移到小点上方,可查看气象台名称。

然后点击查看天气观测和预报。

如需切换地图:点击带黑十字的绿色按钮放大地图;点击带横线的绿色按钮缩小地图;或者点击绿色箭头查看邻近地区的地图。


METAR-TAF: